sensor_id;sensor_type;location;lat;lon;timestamp;pressure;altitude;pressure_sealevel;temperature
48362;BMP280;34510;51.888;5.670;2022-09-09T00:04:05;100735.31;;;16.31
48362;BMP280;34510;51.888;5.670;2022-09-09T00:09:45;100731.06;;;16.29
48362;BMP280;34510;51.888;5.670;2022-09-09T00:15:11;100727.66;;;16.27
48362;BMP280;34510;51.888;5.670;2022-09-09T00:20:31;100728.47;;;16.04
48362;BMP280;34510;51.888;5.670;2022-09-09T00:25:35;100719.09;;;15.98
48362;BMP280;34510;51.888;5.670;2022-09-09T00:30:39;100721.97;;;15.80
48362;BMP280;34510;51.888;5.670;2022-09-09T00:35:49;100721.13;;;15.79
48362;BMP280;34510;51.888;5.670;2022-09-09T00:46:08;100710.69;;;15.57
48362;BMP280;34510;51.888;5.670;2022-09-09T00:51:21;100713.72;;;15.55
48362;BMP280;34510;51.888;5.670;2022-09-09T00:56:31;100713.34;;;15.51
48362;BMP280;34510;51.888;5.670;2022-09-09T01:01:36;100715.53;;;15.49
48362;BMP280;34510;51.888;5.670;2022-09-09T01:06:38;100714.44;;;15.50
48362;BMP280;34510;51.888;5.670;2022-09-09T01:16:56;100710.38;;;15.35
48362;BMP280;34510;51.888;5.670;2022-09-09T01:27:43;100703.31;;;15.32
48362;BMP280;34510;51.888;5.670;2022-09-09T01:37:49;100702.09;;;15.28
48362;BMP280;34510;51.888;5.670;2022-09-09T01:42:51;100699.63;;;15.20
48362;BMP280;34510;51.888;5.670;2022-09-09T01:47:53;100710.28;;;15.11
48362;BMP280;34510;51.888;5.670;2022-09-09T01:53:17;100712.50;;;15.21
48362;BMP280;34510;51.888;5.670;2022-09-09T01:58:59;100703.22;;;15.09
48362;BMP280;34510;51.888;5.670;2022-09-09T02:04:10;100694.16;;;14.95
48362;BMP280;34510;51.888;5.670;2022-09-09T02:09:16;100687.56;;;14.89
48362;BMP280;34510;51.888;5.670;2022-09-09T02:14:27;100692.38;;;15.01
48362;BMP280;34510;51.888;5.670;2022-09-09T02:19:36;100682.31;;;14.81
48362;BMP280;34510;51.888;5.670;2022-09-09T02:24:58;100681.38;;;14.87
48362;BMP280;34510;51.888;5.670;2022-09-09T02:30:04;100685.84;;;14.88
48362;BMP280;34510;51.888;5.670;2022-09-09T02:35:17;100681.97;;;14.89
48362;BMP280;34510;51.888;5.670;2022-09-09T02:40:22;100685.72;;;14.65
48362;BMP280;34510;51.888;5.670;2022-09-09T02:45:36;100683.63;;;14.79
48362;BMP280;34510;51.888;5.670;2022-09-09T02:56:10;100665.22;;;14.89
48362;BMP280;34510;51.888;5.670;2022-09-09T03:01:17;100668.34;;;14.81
48362;BMP280;34510;51.888;5.670;2022-09-09T03:06:19;100680.06;;;14.72
48362;BMP280;34510;51.888;5.670;2022-09-09T03:11:28;100682.25;;;14.70
48362;BMP280;34510;51.888;5.670;2022-09-09T03:16:29;100685.56;;;14.78
48362;BMP280;34510;51.888;5.670;2022-09-09T03:21:32;100680.78;;;14.67
48362;BMP280;34510;51.888;5.670;2022-09-09T03:26:33;100680.44;;;14.75
48362;BMP280;34510;51.888;5.670;2022-09-09T03:31:36;100681.84;;;14.84
48362;BMP280;34510;51.888;5.670;2022-09-09T03:36:38;100672.69;;;14.96
48362;BMP280;34510;51.888;5.670;2022-09-09T03:41:40;100679.34;;;14.95
48362;BMP280;34510;51.888;5.670;2022-09-09T03:46:42;100684.91;;;14.95
48362;BMP280;34510;51.888;5.670;2022-09-09T03:51:43;100685.38;;;15.10
48362;BMP280;34510;51.888;5.670;2022-09-09T03:56:48;100683.44;;;15.10
48362;BMP280;34510;51.888;5.670;2022-09-09T04:01:49;100670.56;;;15.09
48362;BMP280;34510;51.888;5.670;2022-09-09T04:06:52;100673.47;;;15.03
48362;BMP280;34510;51.888;5.670;2022-09-09T04:11:54;100669.94;;;15.07
48362;BMP280;34510;51.888;5.670;2022-09-09T04:16:56;100663.94;;;15.22
48362;BMP280;34510;51.888;5.670;2022-09-09T04:22:00;100657.97;;;15.18
48362;BMP280;34510;51.888;5.670;2022-09-09T04:27:01;100657.13;;;15.18
48362;BMP280;34510;51.888;5.670;2022-09-09T04:32:04;100659.56;;;15.26
48362;BMP280;34510;51.888;5.670;2022-09-09T04:37:07;100646.50;;;15.38
48362;BMP280;34510;51.888;5.670;2022-09-09T04:42:09;100660.81;;;15.30
48362;BMP280;34510;51.888;5.670;2022-09-09T04:47:11;100658.06;;;15.53
48362;BMP280;34510;51.888;5.670;2022-09-09T04:52:12;100654.66;;;15.51
48362;BMP280;34510;51.888;5.670;2022-09-09T04:57:14;100644.25;;;15.59
48362;BMP280;34510;51.888;5.670;2022-09-09T05:02:21;100650.03;;;15.45
48362;BMP280;34510;51.888;5.670;2022-09-09T05:07:26;100645.56;;;15.56
48362;BMP280;34510;51.888;5.670;2022-09-09T05:12:28;100644.09;;;15.53
48362;BMP280;34510;51.888;5.670;2022-09-09T05:17:30;100645.50;;;15.63
48362;BMP280;34510;51.888;5.670;2022-09-09T05:22:32;100638.94;;;15.69
